Time;durP1;ratioP1;P1;durP2;ratioP2;P2;SDS_P1;SDS_P2;PMS_P1;PMS_P2;Temp;Humidity;BMP_temperature;BMP_pressure;BME280_temperature;BME280_humidity;BME280_pressure;Samples;Min_cycle;Max_cycle;Signal;HPM_P1;HPM_P2
2021/01/03 00:01:12;;;;;;;99.50;42.07;;;4.90;99.90;;;;;;5063857;28;37662;-77
2021/01/03 00:03:39;;;;;;;76.30;39.33;;;4.90;99.90;;;;;;5057730;27;38385;-77
2021/01/03 00:06:07;;;;;;;81.23;39.70;;;4.80;99.90;;;;;;5063121;28;37710;-78
2021/01/03 00:08:33;;;;;;;100.17;46.53;;;4.80;99.90;;;;;;5067968;27;37829;-77
2021/01/03 00:10:59;;;;;;;186.17;66.00;;;4.80;99.90;;;;;;5062786;28;37873;-78
2021/01/03 00:13:25;;;;;;;140.20;58.37;;;4.70;99.90;;;;;;5060528;27;38875;-78
2021/01/03 00:15:51;;;;;;;109.20;48.30;;;4.80;99.90;;;;;;5055703;28;39948;-78
2021/01/03 00:18:17;;;;;;;88.03;43.13;;;4.80;99.90;;;;;;5058667;27;36373;-78
2021/01/03 00:20:44;;;;;;;122.33;49.07;;;4.70;99.90;;;;;;5062711;28;39913;-78
2021/01/03 00:23:10;;;;;;;88.80;39.50;;;4.70;99.90;;;;;;5061814;27;37195;-78
2021/01/03 00:25:42;;;;;;;228.80;83.23;;;4.60;99.90;;;;;;5063272;28;38344;-77
2021/01/03 00:28:11;;;;;;;131.32;57.30;;;4.60;99.90;;;;;;5062112;27;38422;-77
2021/01/03 00:30:37;;;;;;;104.93;46.77;;;4.70;99.90;;;;;;5059210;28;39366;-78
2021/01/03 00:33:06;;;;;;;204.30;65.97;;;4.70;99.90;;;;;;5051346;27;37895;-78
2021/01/03 00:35:36;;;;;;;97.07;44.37;;;4.70;99.90;;;;;;5061230;28;37908;-78
2021/01/03 00:38:05;;;;;;;113.03;47.70;;;4.70;99.90;;;;;;5070287;27;37776;-77
2021/01/03 00:40:32;;;;;;;149.93;58.13;;;4.60;99.90;;;;;;5064414;28;39290;-78
2021/01/03 00:42:59;;;;;;;161.70;58.57;;;4.60;99.90;;;;;;5066714;28;37740;-77
2021/01/03 00:45:26;;;;;;;143.63;57.90;;;4.60;99.90;;;;;;5060565;27;38407;-78
2021/01/03 00:47:52;;;;;;;132.00;51.70;;;4.70;99.90;;;;;;5062123;28;37412;-78
2021/01/03 00:50:18;;;;;;;136.97;53.37;;;4.70;99.90;;;;;;5051282;28;37878;-77
2021/01/03 00:52:44;;;;;;;103.80;46.10;;;4.70;99.90;;;;;;5065475;28;36906;-78
2021/01/03 00:55:14;;;;;;;99.20;41.53;;;4.80;99.90;;;;;;5068314;27;38045;-78
2021/01/03 00:57:40;;;;;;;114.77;44.03;;;4.80;99.90;;;;;;5059718;28;39002;-78
2021/01/03 01:00:17;;;;;;;160.23;55.57;;;4.80;99.90;;;;;;5063266;27;38187;-77
2021/01/03 01:02:46;;;;;;;93.03;41.37;;;4.80;99.90;;;;;;5062310;28;40144;-78
2021/01/03 01:05:14;;;;;;;111.70;43.07;;;4.90;99.90;;;;;;5063042;28;38573;-77
2021/01/03 01:07:43;;;;;;;83.10;38.50;;;4.90;99.90;;;;;;5059867;28;37470;-77
2021/01/03 01:10:15;;;;;;;85.97;39.93;;;4.90;99.90;;;;;;5060876;28;39908;-78
2021/01/03 01:12:41;;;;;;;73.93;34.97;;;5.00;99.90;;;;;;5061018;28;38534;-78
2021/01/03 01:15:17;;;;;;;90.23;38.40;;;5.00;99.90;;;;;;5066108;28;39610;-78
2021/01/03 01:17:45;;;;;;;89.07;39.63;;;4.90;99.90;;;;;;5067071;28;37830;-77
2021/01/03 01:20:13;;;;;;;92.97;41.47;;;5.00;99.90;;;;;;5061123;27;38678;-77
2021/01/03 01:22:40;;;;;;;100.87;42.50;;;5.00;99.90;;;;;;5061458;28;38866;-78
2021/01/03 01:25:12;;;;;;;110.47;43.20;;;5.00;99.90;;;;;;5056186;28;37338;-78
2021/01/03 01:27:39;;;;;;;85.40;38.65;;;5.10;99.90;;;;;;5075813;28;36490;-77
2021/01/03 01:30:13;;;;;;;98.37;42.93;;;5.00;99.90;;;;;;5050886;27;38962;-78
2021/01/03 01:32:50;;;;;;;102.27;45.60;;;5.00;99.90;;;;;;5064005;28;39891;-78
2021/01/03 01:35:21;;;;;;;173.30;54.70;;;5.00;99.90;;;;;;5047354;27;38910;-78
2021/01/03 01:37:48;;;;;;;95.83;41.87;;;5.10;99.90;;;;;;5047283;28;37035;-77
2021/01/03 01:40:17;;;;;;;92.93;43.17;;;5.10;99.90;;;;;;5053414;27;38797;-78
2021/01/03 01:42:46;;;;;;;124.50;47.53;;;5.10;99.90;;;;;;5060514;28;39736;-78
2021/01/03 01:45:16;;;;;;;91.43;42.27;;;5.10;99.90;;;;;;5069413;27;38062;-77
2021/01/03 01:47:49;;;;;;;114.70;45.60;;;5.10;99.90;;;;;;5062476;28;36698;-78
2021/01/03 01:50:20;;;;;;;123.03;49.80;;;5.10;99.90;;;;;;5060904;28;39653;-78
2021/01/03 01:52:50;;;;;;;126.07;46.80;;;5.00;99.90;;;;;;5066229;28;38982;-77
2021/01/03 01:55:41;;;;;;;141.43;51.10;;;5.00;99.90;;;;;;5061338;28;38314;-78
2021/01/03 01:58:24;;;;;;;123.17;46.67;;;5.00;99.90;;;;;;5061253;27;36850;-77
2021/01/03 02:00:55;;;;;;;;;;;4.90;99.90;;;;;;5063837;28;39933;-77
2021/01/03 02:03:49;;;;;;;117.57;46.30;;;5.00;99.90;;;;;;5062273;28;38934;-77
2021/01/03 02:06:24;;;;;;;157.83;54.30;;;5.00;99.90;;;;;;5057364;28;40029;-78
2021/01/03 02:09:02;;;;;;;118.30;47.83;;;5.00;99.90;;;;;;5063866;27;37386;-77
2021/01/03 02:11:30;;;;;;;124.90;48.87;;;5.00;99.90;;;;;;5062892;28;48306;-77
2021/01/03 02:14:01;;;;;;;163.17;57.77;;;4.90;99.90;;;;;;5061413;28;39754;-77
2021/01/03 02:16:36;;;;;;;141.60;52.50;;;5.00;99.90;;;;;;5066573;27;38007;-77
2021/01/03 02:19:07;;;;;;;135.87;51.40;;;5.00;99.90;;;;;;5065222;28;38168;-76
2021/01/03 02:22:01;;;;;;;127.40;50.70;;;5.00;99.90;;;;;;5061443;28;38254;-77
2021/01/03 02:24:46;;;;;;;122.63;48.00;;;5.00;99.90;;;;;;5059954;27;47545;-78
2021/01/03 02:27:21;;;;;;;121.17;49.07;;;5.00;99.90;;;;;;5066130;28;39280;-77
2021/01/03 02:29:53;;;;;;;107.93;44.77;;;4.90;99.90;;;;;;5064874;27;36989;-77
2021/01/03 02:32:22;;;;;;;110.00;45.10;;;4.90;99.90;;;;;;5059815;28;38087;-78
2021/01/03 02:34:49;;;;;;;126.70;48.30;;;5.00;99.90;;;;;;5061818;28;40580;-78
2021/01/03 02:37:23;;;;;;;123.73;46.30;;;4.90;99.90;;;;;;5060658;28;38527;-78
2021/01/03 02:40:09;;;;;;;98.57;41.20;;;4.90;99.90;;;;;;5057305;28;37606;-77
2021/01/03 02:42:38;;;;;;;84.00;36.80;;;4.90;99.90;;;;;;5060480;28;47286;-78
2021/01/03 02:45:15;;;;;;;84.57;38.87;;;4.80;99.90;;;;;;5062159;28;38723;-77
2021/01/03 02:47:42;;;;;;;96.07;39.23;;;4.80;99.90;;;;;;5058520;28;38228;-78
2021/01/03 02:50:17;;;;;;;82.93;37.40;;;4.80;99.90;;;;;;5072316;28;37476;-78
2021/01/03 02:52:44;;;;;;;96.87;39.50;;;4.80;99.90;;;;;;5063502;28;37623;-78
2021/01/03 02:55:12;;;;;;;99.80;38.23;;;4.80;99.90;;;;;;5061465;28;38906;-77
2021/01/03 02:57:38;;;;;;;85.73;35.63;;;4.80;99.90;;;;;;5063263;28;37745;-77
2021/01/03 03:00:30;;;;;;;95.93;37.77;;;4.80;99.90;;;;;;5059786;28;36666;-77
2021/01/03 03:02:57;;;;;;;79.20;32.90;;;4.80;99.90;;;;;;5055564;28;39559;-77
2021/01/03 03:05:23;;;;;;;73.47;32.13;;;4.70;99.90;;;;;;5065069;27;38753;-78
2021/01/03 03:07:55;;;;;;;71.77;31.87;;;4.70;99.90;;;;;;5064169;28;38556;-77
2021/01/03 03:10:30;;;;;;;65.78;30.77;;;4.70;99.90;;;;;;5063097;27;37029;-77
2021/01/03 03:12:59;;;;;;;62.97;29.87;;;4.70;99.90;;;;;;5061205;28;40159;-77
2021/01/03 03:15:28;;;;;;;74.33;31.10;;;4.60;99.90;;;;;;5062289;27;38061;-78
2021/01/03 03:17:54;;;;;;;67.73;28.70;;;4.70;99.90;;;;;;5061995;28;38505;-77
2021/01/03 03:20:21;;;;;;;71.87;31.83;;;4.70;99.90;;;;;;5059829;28;37281;-77
2021/01/03 03:22:47;;;;;;;72.47;30.57;;;4.70;99.90;;;;;;5058652;28;37603;-77
2021/01/03 03:25:15;;;;;;;74.23;30.57;;;4.70;99.90;;;;;;5061563;28;38840;-78
2021/01/03 03:27:41;;;;;;;67.47;29.23;;;4.70;99.90;;;;;;5063511;28;40879;-77
2021/01/03 03:30:12;;;;;;;68.37;30.03;;;4.70;99.90;;;;;;5061371;27;37012;-77
2021/01/03 03:32:38;;;;;;;69.73;28.60;;;4.60;99.90;;;;;;5063166;28;38378;-77
2021/01/03 03:35:07;;;;;;;72.10;31.87;;;4.70;99.90;;;;;;5061500;28;39773;-77
2021/01/03 03:37:38;;;;;;;70.43;28.97;;;4.70;99.90;;;;;;5054134;28;37335;-77
2021/01/03 03:40:05;;;;;;;64.20;29.40;;;4.60;99.90;;;;;;5056751;28;37686;-77
2021/01/03 03:42:35;;;;;;;74.27;31.17;;;4.70;99.90;;;;;;5057918;28;38262;-77
2021/01/03 03:45:02;;;;;;;68.63;28.73;;;4.70;99.90;;;;;;5061525;28;38150;-77
2021/01/03 03:47:29;;;;;;;67.47;29.97;;;4.70;99.90;;;;;;5063008;28;38892;-76
2021/01/03 03:49:56;;;;;;;62.13;27.60;;;4.70;99.90;;;;;;5064436;27;37403;-78
2021/01/03 03:52:22;;;;;;;84.50;32.13;;;4.70;99.90;;;;;;5057102;28;40785;-79
2021/01/03 03:54:51;;;;;;;80.17;32.10;;;4.70;99.90;;;;;;5062906;28;38721;-78
2021/01/03 03:57:17;;;;;;;80.73;33.27;;;4.70;99.90;;;;;;5063922;28;39249;-77
2021/01/03 03:59:44;;;;;;;76.67;31.83;;;4.60;99.90;;;;;;5065664;28;38160;-78
2021/01/03 04:02:10;;;;;;;74.97;32.30;;;4.70;99.90;;;;;;5060219;28;39836;-77
2021/01/03 04:04:37;;;;;;;82.87;33.57;;;4.70;99.90;;;;;;5079906;27;38323;-77
2021/01/03 04:07:03;;;;;;;83.70;35.50;;;4.70;99.90;;;;;;5062847;28;37558;-77
2021/01/03 04:09:32;;;;;;;85.87;33.40;;;4.70;99.90;;;;;;5062259;27;36464;-78
2021/01/03 04:12:01;;;;;;;92.93;37.30;;;4.70;99.90;;;;;;5061893;28;38072;-78
2021/01/03 04:14:27;;;;;;;80.17;33.90;;;4.60;99.90;;;;;;5063018;28;47426;-78
2021/01/03 04:16:56;;;;;;;105.57;36.57;;;4.60;99.90;;;;;;5053338;28;36923;-77
2021/01/03 04:19:23;;;;;;;86.00;35.77;;;4.60;99.90;;;;;;5063220;28;36966;-77
2021/01/03 04:21:54;;;;;;;79.07;35.13;;;4.60;99.90;;;;;;5064173;28;38981;-78
2021/01/03 04:24:21;;;;;;;79.30;34.37;;;4.60;99.90;;;;;;5065411;28;39313;-77
2021/01/03 04:26:59;;;;;;;82.83;34.27;;;4.60;99.90;;;;;;5059411;28;38990;-78
2021/01/03 04:29:25;;;;;;;85.67;34.27;;;4.60;99.90;;;;;;5058891;28;37884;-78
2021/01/03 04:32:06;;;;;;;82.70;33.53;;;4.60;99.90;;;;;;5065095;28;38986;-78
2021/01/03 04:34:33;;;;;;;72.00;32.20;;;4.60;99.90;;;;;;5065033;27;49144;-78
2021/01/03 04:37:00;;;;;;;68.27;30.03;;;4.50;99.90;;;;;;5051064;28;38769;-77
2021/01/03 04:39:28;;;;;;;65.47;29.93;;;4.50;99.90;;;;;;5062753;27;37430;-78
2021/01/03 04:42:03;;;;;;;69.70;31.77;;;4.50;99.90;;;;;;5062998;28;39964;-78
2021/01/03 04:44:42;;;;;;;72.23;30.73;;;4.60;99.90;;;;;;5060613;28;48427;-77
2021/01/03 04:47:22;;;;;;;68.13;29.37;;;4.50;99.90;;;;;;5061184;28;39432;-77
2021/01/03 04:49:59;;;;;;;61.27;27.93;;;4.50;99.90;;;;;;5064745;28;37583;-77
2021/01/03 04:53:06;;;;;;;74.20;31.97;;;4.50;99.90;;;;;;5059993;28;39571;-78
2021/01/03 04:55:37;;;;;;;68.67;29.73;;;4.50;99.90;;;;;;5037323;28;47545;-77
2021/01/03 04:58:15;;;;;;;67.53;30.23;;;4.50;99.90;;;;;;5062535;27;38498;-77
2021/01/03 05:00:49;;;;;;;59.03;26.70;;;4.50;99.90;;;;;;5062203;28;35839;-77
2021/01/03 05:03:25;;;;;;;60.90;27.20;;;4.50;99.90;;;;;;5061835;28;39475;-77
2021/01/03 05:05:58;;;;;;;55.20;25.90;;;4.50;99.90;;;;;;5065273;27;39214;-77
2021/01/03 05:08:46;;;;;;;47.93;25.40;;;4.40;99.90;;;;;;5047102;28;38383;-77
2021/01/03 05:11:17;;;;;;;62.13;27.13;;;4.50;99.90;;;;;;5050164;28;37097;-78
2021/01/03 05:13:54;;;;;;;56.63;24.43;;;4.50;99.90;;;;;;5041831;28;39323;-78
2021/01/03 05:16:21;;;;;;;60.80;27.17;;;4.50;99.90;;;;;;5039374;28;39143;-77
2021/01/03 05:18:47;;;;;;;63.57;28.33;;;4.40;99.90;;;;;;5043119;28;37455;-77
2021/01/03 05:21:13;;;;;;;70.00;29.63;;;4.50;99.90;;;;;;5036524;28;36039;-77
2021/01/03 05:24:00;;;;;;;67.87;29.30;;;4.50;99.90;;;;;;5039610;28;40113;-77
2021/01/03 05:26:30;;;;;;;67.93;30.17;;;4.50;99.90;;;;;;5041751;28;47792;-77
2021/01/03 05:28:57;;;;;;;65.93;28.67;;;4.50;99.90;;;;;;5034869;28;37864;-78
2021/01/03 05:31:24;;;;;;;61.30;28.63;;;4.50;99.90;;;;;;5040872;27;37438;-77
2021/01/03 05:34:07;;;;;;;58.50;26.80;;;4.50;99.90;;;;;;5040707;28;38421;-77
2021/01/03 05:36:36;;;;;;;69.00;28.77;;;4.40;99.90;;;;;;5058983;28;48644;-77
2021/01/03 05:39:28;;;;;;;74.37;30.17;;;4.50;99.90;;;;;;5059586;28;37208;-77
2021/01/03 05:42:14;;;;;;;70.83;30.00;;;4.50;99.90;;;;;;5062665;28;38414;-77
2021/01/03 05:44:46;;;;;;;62.30;27.97;;;4.50;99.90;;;;;;5051918;28;47535;-78
2021/01/03 05:47:17;;;;;;;74.73;30.00;;;4.50;99.90;;;;;;5065346;28;40002;-78
2021/01/03 05:49:45;;;;;;;71.88;31.42;;;4.50;99.90;;;;;;5064534;28;41249;-78
2021/01/03 05:52:25;;;;;;;81.63;30.17;;;4.50;99.90;;;;;;5061565;28;36873;-78
2021/01/03 05:54:53;;;;;;;64.13;27.53;;;4.50;99.90;;;;;;5052031;28;40199;-77
2021/01/03 05:57:34;;;;;;;80.17;31.93;;;4.50;99.90;;;;;;5061790;28;39159;-78
2021/01/03 06:00:25;;;;;;;64.97;28.67;;;4.50;99.90;;;;;;5061478;28;37714;-78
2021/01/03 06:02:51;;;;;;;60.93;27.60;;;4.60;99.90;;;;;;5052543;28;47742;-77
2021/01/03 06:05:21;;;;;;;64.43;29.27;;;4.60;99.90;;;;;;5065300;27;37702;-77
2021/01/03 06:08:18;;;;;;;63.93;27.87;;;4.60;99.90;;;;;;5059344;28;38655;-77
2021/01/03 06:10:44;;;;;;;74.00;29.00;;;4.60;99.90;;;;;;5079176;28;46893;-78
2021/01/03 06:13:12;;;;;;;67.77;29.60;;;4.50;99.90;;;;;;5061664;27;37293;-77
2021/01/03 06:15:59;;;;;;;67.53;27.10;;;4.60;99.90;;;;;;5063719;28;39611;-77
2021/01/03 06:18:41;;;;;;;64.83;27.00;;;4.50;99.90;;;;;;5063679;27;39697;-77
2021/01/03 06:21:21;;;;;;;65.87;27.77;;;4.50;99.90;;;;;;5059344;28;37525;-77
2021/01/03 06:24:04;;;;;;;63.47;27.17;;;4.50;99.90;;;;;;5061849;28;38586;-77
2021/01/03 06:26:52;;;;;;;69.97;29.17;;;4.50;99.90;;;;;;5055221;28;48565;-76
2021/01/03 06:29:39;;;;;;;68.23;28.93;;;4.60;99.90;;;;;;5056644;28;36903;-77
2021/01/03 06:32:14;;;;;;;76.33;31.20;;;4.60;99.90;;;;;;5062355;28;37026;-78
2021/01/03 06:34:48;;;;;;;61.87;27.40;;;4.50;99.90;;;;;;5059756;27;37202;-77
2021/01/03 06:37:48;;;;;;;66.50;26.87;;;4.50;99.90;;;;;;5060129;28;38945;-76
2021/01/03 06:40:40;;;;;;;66.47;27.37;;;4.50;99.90;;;;;;5060801;27;38402;-77
2021/01/03 06:43:41;;;;;;;63.77;28.13;;;4.50;99.90;;;;;;5066023;28;37787;-78
2021/01/03 06:46:19;;;;;;;69.90;28.37;;;4.50;99.90;;;;;;5059023;28;36983;-77
2021/01/03 06:49:04;;;;;;;67.50;29.30;;;4.50;99.90;;;;;;5055408;28;38597;-77
2021/01/03 06:52:00;;;;;;;74.80;28.87;;;4.50;99.90;;;;;;5048048;28;47566;-77
2021/01/03 06:54:54;;;;;;;67.03;27.17;;;4.50;99.90;;;;;;5058398;28;38453;-77
2021/01/03 06:57:20;;;;;;;64.80;27.20;;;4.60;99.90;;;;;;5061728;28;37591;-77
2021/01/03 07:00:24;;;;;;;73.07;29.43;;;4.60;99.90;;;;;;5056052;28;39053;-77
2021/01/03 07:03:27;;;;;;;62.07;27.80;;;4.60;99.90;;;;;;5058390;28;47830;-76
2021/01/03 07:06:01;;;;;;;65.75;27.70;;;4.60;99.90;;;;;;5065658;28;49711;-76
2021/01/03 07:08:36;;;;;;;73.17;29.93;;;4.60;99.90;;;;;;5032437;28;49012;-77
2021/01/03 07:11:02;;;;;;;63.33;27.03;;;4.60;99.90;;;;;;5060575;28;39145;-76
2021/01/03 07:13:28;;;;;;;65.40;26.77;;;4.60;99.90;;;;;;5061566;28;37864;-77
2021/01/03 07:16:00;;;;;;;70.67;29.47;;;4.60;99.90;;;;;;5056227;28;37826;-76
2021/01/03 07:18:29;;;;;;;70.63;28.93;;;4.60;99.90;;;;;;5030318;28;36203;-76
2021/01/03 07:21:04;;;;;;;63.80;29.20;;;4.60;99.90;;;;;;5042602;28;38168;-76
2021/01/03 07:23:47;;;;;;;73.53;30.93;;;4.60;99.90;;;;;;5036485;28;47153;-76
2021/01/03 07:26:33;;;;;;;69.18;28.50;;;4.70;99.90;;;;;;5037565;28;36644;-76
2021/01/03 07:29:13;;;;;;;72.80;30.30;;;4.60;99.90;;;;;;5041396;28;36637;-76
2021/01/03 07:32:01;;;;;;;78.43;31.47;;;4.60;99.90;;;;;;5049320;28;47890;-76
2021/01/03 07:34:33;;;;;;;87.13;32.17;;;4.60;99.90;;;;;;5043388;28;49256;-76
2021/01/03 07:37:24;;;;;;;84.67;33.80;;;4.60;99.90;;;;;;5061750;28;39316;-76
2021/01/03 07:40:10;;;;;;;84.43;33.40;;;4.60;99.90;;;;;;5062091;28;48783;-76
2021/01/03 07:42:43;;;;;;;89.43;33.23;;;4.60;99.90;;;;;;5053609;28;46727;-76
2021/01/03 07:45:12;;;;;;;76.43;31.50;;;4.60;99.90;;;;;;5061456;28;38944;-76
2021/01/03 07:47:48;;;;;;;74.67;28.97;;;4.60;99.90;;;;;;5061316;28;38237;-77
2021/01/03 07:50:20;;;;;;;71.40;32.00;;;4.50;99.90;;;;;;5042975;28;37703;-77
2021/01/03 07:53:18;;;;;;;85.38;31.30;;;4.50;99.90;;;;;;5061736;28;37911;-77
2021/01/03 07:55:47;;;;;;;67.40;29.33;;;4.50;99.90;;;;;;5022460;28;47421;-77
2021/01/03 07:58:17;;;;;;;85.83;32.93;;;4.60;99.90;;;;;;5057407;28;36853;-75
2021/01/03 08:00:45;;;;;;;72.87;31.30;;;4.60;99.90;;;;;;5060997;28;37312;-76
2021/01/03 08:03:17;;;;;;;71.57;31.90;;;4.50;99.90;;;;;;5058923;27;37903;-76
2021/01/03 08:05:44;;;;;;;85.43;33.63;;;4.60;99.90;;;;;;5061500;28;38920;-76
2021/01/03 08:08:16;;;;;;;83.07;33.87;;;4.50;99.90;;;;;;5058718;27;38256;-77
2021/01/03 08:10:44;;;;;;;73.20;32.00;;;4.50;99.90;;;;;;5061671;28;36564;-76
2021/01/03 08:13:31;;;;;;;85.57;34.23;;;4.50;99.90;;;;;;5063601;27;39841;-76
2021/01/03 08:15:59;;;;;;;91.73;36.10;;;4.40;99.90;;;;;;5064130;28;37150;-75
2021/01/03 08:18:33;;;;;;;89.80;34.57;;;4.40;99.90;;;;;;5039380;27;38156;-76
2021/01/03 08:21:19;;;;;;;109.60;39.73;;;4.40;99.90;;;;;;5039135;28;36321;-76
2021/01/03 08:23:46;;;;;;;89.90;34.83;;;4.40;99.90;;;;;;5040890;28;47403;-77
2021/01/03 08:26:16;;;;;;;88.47;35.37;;;4.50;99.90;;;;;;5036635;28;38847;-77
2021/01/03 08:29:03;;;;;;;82.83;33.60;;;4.50;99.90;;;;;;5039889;28;39309;-77
2021/01/03 08:31:30;;;;;;;79.87;33.03;;;4.40;99.90;;;;;;5025203;28;47072;-77
2021/01/03 08:33:58;;;;;;;87.27;36.13;;;4.50;99.90;;;;;;5039010;28;38038;-77
2021/01/03 08:36:26;;;;;;;85.87;36.20;;;4.50;99.90;;;;;;5028070;28;37642;-77
2021/01/03 08:39:05;;;;;;;81.73;35.77;;;4.40;99.90;;;;;;5042959;28;38227;-76
2021/01/03 08:41:36;;;;;;;80.60;34.30;;;4.40;99.90;;;;;;5060987;28;47162;-76
2021/01/03 08:44:04;;;;;;;87.50;35.00;;;4.40;99.90;;;;;;5054860;28;38365;-77
2021/01/03 08:46:33;;;;;;;76.67;31.63;;;4.50;99.90;;;;;;5056531;28;38863;-77
2021/01/03 08:49:03;;;;;;;89.97;35.37;;;4.50;99.90;;;;;;5054211;28;38573;-78
2021/01/03 08:51:32;;;;;;;80.50;34.57;;;4.50;99.90;;;;;;5056665;28;48031;-78
2021/01/03 08:54:01;;;;;;;84.67;36.03;;;4.50;99.90;;;;;;5049081;28;39841;-80
2021/01/03 08:56:34;;;;;;;82.40;34.57;;;4.40;99.90;;;;;;5058008;28;39310;-77
2021/01/03 08:59:00;;;;;;;100.07;36.40;;;4.50;99.90;;;;;;5061664;28;39999;-76
2021/01/03 09:01:30;;;;;;;80.77;34.30;;;4.50;99.90;;;;;;5060605;28;36942;-78
2021/01/03 09:04:03;;;;;;;79.73;32.37;;;4.50;99.90;;;;;;5061186;28;39799;-78
2021/01/03 09:06:30;;;;;;;;;;;4.50;99.90;;;;;;5062832;28;49089;-76
2021/01/03 09:08:57;;;;;;;85.13;32.80;;;4.50;99.90;;;;;;5061307;28;37714;-76
2021/01/03 09:11:26;;;;;;;80.77;33.00;;;4.50;99.90;;;;;;5060712;28;36089;-76
2021/01/03 09:14:36;;;;;;;77.73;32.13;;;4.50;99.90;;;;;;5057471;28;36034;-76
2021/01/03 09:17:17;;;;;;;77.63;32.37;;;4.60;99.90;;;;;;5036005;28;47861;-76
2021/01/03 09:19:58;;;;;;;69.23;31.20;;;4.60;99.90;;;;;;5053471;28;37814;-77
2021/01/03 09:22:29;;;;;;;72.77;30.53;;;4.60;99.90;;;;;;5062296;27;37655;-77
2021/01/03 09:25:01;;;;;;;68.23;31.10;;;4.60;99.90;;;;;;5051338;28;38981;-77
2021/01/03 09:27:30;;;;;;;65.57;30.00;;;4.70;99.90;;;;;;5062679;28;40097;-78
2021/01/03 09:30:12;;;;;;;62.17;29.57;;;4.70;99.90;;;;;;5070656;28;38502;-77
2021/01/03 09:32:51;;;;;;;63.17;29.33;;;4.70;99.90;;;;;;5064190;28;49240;-78
2021/01/03 09:35:44;;;;;;;65.40;30.33;;;4.70;99.90;;;;;;5057891;28;38932;-78
2021/01/03 09:38:35;;;;;;;60.92;27.75;;;4.70;99.90;;;;;;5057806;28;39761;-77
2021/01/03 09:41:35;;;;;;;58.73;30.17;;;4.80;99.90;;;;;;5063065;27;38366;-77
2021/01/03 09:44:08;;;;;;;57.90;28.30;;;4.80;99.90;;;;;;5060043;28;47724;-76
2021/01/03 09:46:50;;;;;;;55.15;26.52;;;4.80;99.90;;;;;;5069992;28;38990;-76
2021/01/03 09:49:44;;;;;;;62.30;27.93;;;4.80;99.90;;;;;;5062601;28;38407;-77
2021/01/03 09:52:22;;;;;;;57.07;27.50;;;4.90;99.90;;;;;;5077528;27;38133;-76
2021/01/03 09:55:04;;;;;;;53.57;27.27;;;4.90;99.90;;;;;;5059515;28;38130;-77
2021/01/03 09:57:49;;;;;;;55.20;27.20;;;4.90;99.90;;;;;;5078820;27;50575;-77
2021/01/03 10:00:19;;;;;;;58.00;28.33;;;5.00;99.90;;;;;;5059330;28;38748;-76
2021/01/03 10:02:45;;;;;;;56.07;29.13;;;4.90;99.90;;;;;;5062910;27;38240;-77
2021/01/03 10:05:30;;;;;;;56.47;28.47;;;5.00;99.90;;;;;;5058597;28;37613;-77
2021/01/03 10:08:14;;;;;;;65.43;30.00;;;4.90;99.90;;;;;;5060450;28;41277;-76
2021/01/03 10:10:58;;;;;;;68.33;31.27;;;5.00;99.90;;;;;;5061039;28;48208;-76
2021/01/03 10:13:30;;;;;;;62.40;29.53;;;5.00;99.90;;;;;;5055396;27;39010;-76
2021/01/03 10:15:57;;;;;;;55.10;28.02;;;5.00;99.90;;;;;;5058743;27;37445;-77
2021/01/03 10:18:39;;;;;;;56.27;27.03;;;4.90;99.90;;;;;;5060333;27;38835;-76
2021/01/03 10:21:27;;;;;;;54.53;28.73;;;5.00;99.90;;;;;;5062536;28;38326;-76
2021/01/03 10:23:56;;;;;;;55.67;28.57;;;5.00;99.90;;;;;;5071121;27;38474;-75
2021/01/03 10:26:37;;;;;;;54.20;27.53;;;5.00;99.90;;;;;;5067477;28;37859;-75
2021/01/03 10:29:04;;;;;;;55.50;27.90;;;5.00;99.90;;;;;;5059158;28;38834;-76
2021/01/03 10:31:48;;;;;;;55.53;26.03;;;5.00;99.90;;;;;;5066411;28;38895;-75
2021/01/03 10:34:17;;;;;;;52.70;26.73;;;5.00;99.90;;;;;;5062926;28;39402;-76
2021/01/03 10:36:44;;;;;;;55.30;28.07;;;5.00;99.90;;;;;;5069077;28;38321;-76
2021/01/03 10:39:11;;;;;;;55.63;27.63;;;5.10;99.90;;;;;;5069678;28;37733;-76
2021/01/03 10:41:38;;;;;;;54.33;27.60;;;5.10;99.90;;;;;;5069858;28;37511;-77
2021/01/03 10:44:09;;;;;;;70.00;33.00;;;5.10;99.90;;;;;;5068202;27;38664;-77
2021/01/03 10:46:39;;;;;;;55.63;27.47;;;5.10;99.90;;;;;;5058799;28;36650;-76
2021/01/03 10:49:08;;;;;;;55.97;28.07;;;5.20;99.90;;;;;;5066604;27;38714;-76
2021/01/03 10:51:47;;;;;;;45.83;24.63;;;5.30;99.90;;;;;;5059785;28;38353;-76
2021/01/03 10:54:19;;;;;;;40.47;22.30;;;5.40;99.90;;;;;;5075208;27;37564;-77
2021/01/03 10:56:46;;;;;;;;;;;5.40;99.90;;;;;;5069818;28;36623;-77
2021/01/03 10:59:12;;;;;;;45.37;23.43;;;5.40;99.90;;;;;;5064352;27;39357;-77
2021/01/03 11:01:38;;;;;;;45.23;23.40;;;5.40;99.90;;;;;;5059386;28;37316;-77
2021/01/03 11:04:05;;;;;;;41.00;21.93;;;5.50;99.90;;;;;;5059576;28;38313;-77
2021/01/03 11:06:39;;;;;;;43.33;23.53;;;5.50;99.90;;;;;;5067808;28;37222;-78
2021/01/03 11:09:08;;;;;;;41.80;22.60;;;5.50;99.90;;;;;;5064244;28;38196;-77
2021/01/03 11:11:34;;;;;;;42.73;22.63;;;5.50;99.90;;;;;;5064856;28;37501;-76
2021/01/03 11:14:00;;;;;;;40.20;22.90;;;5.50;99.90;;;;;;5065300;28;38425;-77
2021/01/03 11:16:32;;;;;;;39.73;21.73;;;5.60;99.90;;;;;;5063138;28;47009;-77
2021/01/03 11:18:58;;;;;;;44.90;21.87;;;5.60;99.90;;;;;;5063595;28;38029;-77
2021/01/03 11:21:24;;;;;;;36.80;21.03;;;5.60;99.90;;;;;;5068604;28;37479;-77
2021/01/03 11:23:50;;;;;;;43.70;23.40;;;5.70;99.90;;;;;;5073380;28;38026;-78
2021/01/03 11:26:23;;;;;;;34.00;19.17;;;5.70;99.90;;;;;;5072517;28;37866;-77
2021/01/03 11:28:49;;;;;;;34.87;18.93;;;5.70;99.90;;;;;;5061417;28;37761;-76
2021/01/03 11:31:15;;;;;;;32.50;17.53;;;5.70;99.90;;;;;;5069476;28;39420;-77
2021/01/03 11:33:41;;;;;;;32.53;18.80;;;5.60;99.90;;;;;;5063591;27;38343;-77
2021/01/03 11:36:10;;;;;;;31.07;18.17;;;5.60;99.90;;;;;;5066433;28;36365;-77
2021/01/03 11:38:36;;;;;;;34.80;18.17;;;5.70;99.90;;;;;;5066831;28;39108;-77
2021/01/03 11:41:03;;;;;;;34.23;17.87;;;5.70;99.90;;;;;;5054714;28;38495;-76
2021/01/03 11:43:29;;;;;;;29.97;15.87;;;5.70;99.90;;;;;;5056809;28;36904;-78
2021/01/03 11:45:55;;;;;;;29.67;16.60;;;5.70;99.90;;;;;;5065856;28;37244;-77
2021/01/03 11:48:22;;;;;;;28.00;16.10;;;5.80;99.90;;;;;;5066550;28;37821;-76
2021/01/03 11:50:49;;;;;;;29.00;15.07;;;5.70;99.90;;;;;;5061559;28;39078;-76
2021/01/03 11:53:15;;;;;;;28.13;15.30;;;5.70;99.90;;;;;;5062597;27;37877;-77
2021/01/03 11:55:41;;;;;;;25.33;13.33;;;5.70;99.90;;;;;;5064433;28;36090;-76
2021/01/03 11:58:07;;;;;;;24.23;13.87;;;5.60;99.90;;;;;;5068334;28;38666;-77
2021/01/03 12:00:33;;;;;;;19.67;11.63;;;5.60;99.90;;;;;;5064195;28;37570;-78
2021/01/03 12:03:00;;;;;;;20.37;12.27;;;5.60;99.90;;;;;;5062675;28;38271;-78
2021/01/03 12:05:26;;;;;;;20.37;11.60;;;5.50;99.90;;;;;;5064532;28;38304;-77
2021/01/03 12:07:52;;;;;;;22.60;12.43;;;5.50;99.90;;;;;;5064543;28;38564;-78
2021/01/03 12:10:18;;;;;;;19.63;11.97;;;5.50;99.90;;;;;;5063273;28;38395;-78
2021/01/03 12:12:44;;;;;;;18.07;11.60;;;5.40;99.90;;;;;;5062512;28;38405;-78
2021/01/03 12:15:11;;;;;;;19.70;12.23;;;5.30;99.90;;;;;;5067224;27;37127;-78
2021/01/03 12:17:37;;;;;;;20.40;11.20;;;5.30;99.90;;;;;;5072823;28;38683;-79
2021/01/03 12:20:04;;;;;;;16.87;11.30;;;5.30;99.90;;;;;;5071803;28;35721;-77
2021/01/03 12:22:33;;;;;;;20.80;11.60;;;5.30;99.90;;;;;;5056980;28;47139;-75
2021/01/03 12:24:59;;;;;;;17.43;10.80;;;5.30;99.90;;;;;;5056560;28;35700;-76
2021/01/03 12:27:25;;;;;;;14.80;10.03;;;5.20;99.90;;;;;;5066804;28;39762;-77
2021/01/03 12:29:51;;;;;;;27.47;16.37;;;5.20;99.90;;;;;;5063765;27;38486;-76
2021/01/03 12:32:17;;;;;;;15.93;11.10;;;5.20;99.90;;;;;;5063598;28;37667;-76
2021/01/03 12:34:43;;;;;;;16.20;10.13;;;5.20;99.90;;;;;;5065644;28;36453;-77
2021/01/03 12:37:13;;;;;;;16.70;9.70;;;5.10;99.90;;;;;;5058268;28;39178;-75
2021/01/03 12:39:40;;;;;;;15.07;9.40;;;5.10;99.90;;;;;;5060677;28;37418;-76
2021/01/03 12:42:09;;;;;;;15.73;9.67;;;5.10;99.90;;;;;;5064109;28;38005;-76
2021/01/03 12:44:35;;;;;;;12.47;8.13;;;5.10;99.90;;;;;;5060573;28;36769;-77
2021/01/03 12:47:02;;;;;;;15.30;9.20;;;5.10;99.90;;;;;;5059542;28;39248;-77
2021/01/03 12:49:29;;;;;;;15.83;8.90;;;5.10;99.90;;;;;;5062506;28;38100;-77
2021/01/03 12:51:56;;;;;;;14.23;8.87;;;5.10;99.90;;;;;;5066400;28;39043;-77
2021/01/03 12:54:22;;;;;;;13.90;8.90;;;5.10;99.90;;;;;;5067704;27;38182;-77
2021/01/03 12:56:48;;;;;;;13.10;8.43;;;5.10;99.90;;;;;;5068232;28;37763;-77
2021/01/03 12:59:15;;;;;;;17.60;9.43;;;5.10;99.90;;;;;;5062225;27;38298;-77
2021/01/03 13:01:43;;;;;;;18.33;10.83;;;5.10;99.90;;;;;;5055610;28;38012;-76
2021/01/03 13:04:12;;;;;;;15.90;10.10;;;5.00;99.90;;;;;;5058596;28;36612;-77